Time;durP1;ratioP1;P1;durP2;ratioP2;P2;SDS_P1;SDS_P2;PMS_P1;PMS_P2;Temp;Humidity;BMP_temperature;BMP_pressure;BME280_temperature;BME280_humidity;BME280_pressure;Samples;Min_cycle;Max_cycle;Signal;HPM_P1;HPM_P2
2024/03/06 00:00:07;;;;;;;5.73;3.60;;;8.20;99.90;;;;;;4972857;28;20472;-73
2024/03/06 00:02:35;;;;;;;2.73;2.53;;;8.10;99.90;;;;;;4966869;28;20301;-72
2024/03/06 00:05:02;;;;;;;3.00;2.23;;;8.10;99.90;;;;;;4965705;28;20533;-72
2024/03/06 00:07:28;;;;;;;2.30;2.10;;;7.90;99.90;;;;;;4966931;28;20490;-73
2024/03/06 00:09:54;;;;;;;2.10;1.90;;;7.80;99.90;;;;;;4969864;28;20446;-74
2024/03/06 00:12:19;;;;;;;2.27;2.17;;;7.80;99.90;;;;;;4964201;28;20570;-73
2024/03/06 00:14:45;;;;;;;1.97;1.77;;;7.90;99.90;;;;;;4963283;28;20269;-73
2024/03/06 00:17:11;;;;;;;2.63;2.43;;;7.90;99.90;;;;;;4967088;28;20579;-72
2024/03/06 00:19:36;;;;;;;3.30;2.80;;;7.90;99.90;;;;;;4965024;28;20659;-74
2024/03/06 00:22:02;;;;;;;4.00;3.50;;;7.90;99.90;;;;;;4950877;28;20628;-74
2024/03/06 00:24:28;;;;;;;5.33;4.83;;;8.00;99.90;;;;;;4967031;28;20313;-74
2024/03/06 00:26:53;;;;;;;5.97;4.97;;;8.00;99.90;;;;;;4968846;28;20889;-74
2024/03/06 00:29:19;;;;;;;4.03;3.63;;;8.00;99.90;;;;;;4972590;28;20222;-73
2024/03/06 00:31:46;;;;;;;4.80;3.77;;;7.90;99.90;;;;;;4968015;28;20234;-74
2024/03/06 00:34:13;;;;;;;3.63;3.23;;;7.90;99.90;;;;;;4968299;28;20364;-74
2024/03/06 00:36:46;;;;;;;2.70;2.50;;;7.90;99.90;;;;;;4984213;28;20454;-74
2024/03/06 00:39:14;;;;;;;4.23;2.77;;;8.00;99.90;;;;;;4967390;28;20530;-71
2024/03/06 00:41:40;;;;;;;3.43;3.13;;;8.00;99.90;;;;;;4966702;28;20521;-74
2024/03/06 00:44:05;;;;;;;3.20;2.50;;;8.10;99.90;;;;;;4967563;28;20483;-73
2024/03/06 00:46:31;;;;;;;3.37;2.50;;;8.20;99.90;;;;;;4967459;28;20458;-74
2024/03/06 00:48:57;;;;;;;3.17;2.30;;;8.20;99.90;;;;;;4966085;28;20556;-74
2024/03/06 00:51:23;;;;;;;2.57;2.23;;;8.20;99.90;;;;;;4963077;28;20614;-74
2024/03/06 00:53:48;;;;;;;3.63;2.40;;;8.20;99.90;;;;;;4960139;28;20214;-72
2024/03/06 00:56:14;;;;;;;4.40;2.80;;;8.20;99.90;;;;;;4945680;28;20214;-73
2024/03/06 00:58:40;;;;;;;3.00;1.87;;;8.20;99.90;;;;;;4953306;28;20229;-73
2024/03/06 01:01:05;;;;;;;2.37;2.17;;;8.10;99.90;;;;;;4963326;28;20218;-73
2024/03/06 01:03:31;;;;;;;2.07;1.90;;;8.10;99.90;;;;;;4959736;28;20302;-74
2024/03/06 01:05:56;;;;;;;3.73;2.37;;;8.10;99.90;;;;;;4956873;28;20230;-73
2024/03/06 01:08:24;;;;;;;2.70;2.10;;;8.10;99.90;;;;;;4944232;28;20227;-74
2024/03/06 01:10:53;;;;;;;2.43;1.93;;;8.10;99.90;;;;;;4962491;28;20222;-72
2024/03/06 01:13:22;;;;;;;2.17;1.97;;;8.00;99.90;;;;;;4972217;28;20976;-73
2024/03/06 01:15:48;;;;;;;2.07;1.83;;;7.90;99.90;;;;;;4954078;28;21063;-73
2024/03/06 01:18:14;;;;;;;2.67;2.10;;;7.80;99.90;;;;;;4961441;28;20561;-73
2024/03/06 01:20:40;;;;;;;2.23;2.00;;;7.80;99.90;;;;;;4957447;28;20218;-74
2024/03/06 01:23:06;;;;;;;3.50;2.30;;;7.80;99.90;;;;;;4960134;28;20238;-74
2024/03/06 01:25:32;;;;;;;1.83;1.73;;;7.70;99.90;;;;;;4965415;28;20500;-73
2024/03/06 01:27:58;;;;;;;2.00;1.80;;;7.70;99.90;;;;;;4957586;28;20956;-73
2024/03/06 01:30:23;;;;;;;2.20;2.00;;;7.70;99.90;;;;;;4962477;28;20229;-72
2024/03/06 01:32:49;;;;;;;4.17;1.93;;;7.80;99.90;;;;;;4946478;28;20228;-73
2024/03/06 01:35:15;;;;;;;1.83;1.73;;;7.80;99.90;;;;;;4964388;28;20301;-74
2024/03/06 01:37:40;;;;;;;2.30;2.10;;;7.80;99.90;;;;;;4967313;28;20249;-72
2024/03/06 01:40:07;;;;;;;2.40;2.00;;;7.80;99.90;;;;;;4949643;28;20227;-72
2024/03/06 01:42:33;;;;;;;2.10;1.90;;;7.80;99.90;;;;;;4944945;28;20239;-72
2024/03/06 01:44:59;;;;;;;2.57;2.37;;;7.80;99.90;;;;;;4963095;28;20482;-73
2024/03/06 01:47:24;;;;;;;4.93;2.03;;;7.80;99.90;;;;;;4963287;28;20236;-72
2024/03/06 01:49:50;;;;;;;3.57;1.87;;;7.80;99.90;;;;;;4962557;28;20257;-73
2024/03/06 01:52:17;;;;;;;2.20;2.00;;;7.80;99.90;;;;;;4946208;28;20226;-72
2024/03/06 01:54:45;;;;;;;3.37;2.80;;;7.70;99.90;;;;;;4959391;28;20318;-73
2024/03/06 01:57:14;;;;;;;2.40;2.20;;;7.70;99.90;;;;;;4966340;28;20548;-73
2024/03/06 01:59:41;;;;;;;3.00;2.03;;;7.70;99.90;;;;;;4958224;28;20488;-74
2024/03/06 02:02:11;;;;;;;2.17;1.97;;;7.70;99.90;;;;;;4958049;28;20478;-72
2024/03/06 02:04:39;;;;;;;1.43;1.33;;;7.70;99.90;;;;;;4961270;28;20469;-74
2024/03/06 02:07:10;;;;;;;3.57;2.07;;;7.70;99.90;;;;;;4967924;28;20450;-73
2024/03/06 02:09:36;;;;;;;2.47;1.43;;;7.70;99.90;;;;;;4956041;28;20453;-74
2024/03/06 02:12:03;;;;;;;2.00;1.47;;;7.50;99.90;;;;;;4965275;28;20463;-73
2024/03/06 02:14:29;;;;;;;2.63;1.83;;;7.20;99.90;;;;;;4964797;28;20471;-73
2024/03/06 02:16:54;;;;;;;2.40;2.20;;;7.20;99.90;;;;;;4974907;28;20462;-74
2024/03/06 02:19:20;;;;;;;1.80;1.60;;;7.20;99.90;;;;;;4966612;28;20473;-73
2024/03/06 02:21:46;;;;;;;2.50;1.87;;;7.10;99.90;;;;;;4947299;28;20338;-73
2024/03/06 02:24:13;;;;;;;1.90;1.43;;;7.00;99.90;;;;;;4963536;28;20211;-74
2024/03/06 02:26:38;;;;;;;3.87;1.87;;;7.00;99.90;;;;;;4962822;28;20245;-73
2024/03/06 02:29:05;;;;;;;2.00;1.60;;;6.90;99.90;;;;;;4965582;28;20465;-73
2024/03/06 02:31:31;;;;;;;3.43;1.80;;;6.90;99.90;;;;;;4964948;28;20227;-70
2024/03/06 02:33:58;;;;;;;2.03;1.80;;;6.90;99.90;;;;;;4942987;28;20458;-70
2024/03/06 02:36:24;;;;;;;1.60;1.50;;;7.00;99.90;;;;;;4962873;28;20257;-70
2024/03/06 02:38:50;;;;;;;2.53;1.63;;;7.00;99.90;;;;;;4962993;28;21046;-73
2024/03/06 02:41:17;;;;;;;2.27;1.70;;;7.10;99.90;;;;;;4965081;28;20454;-70
2024/03/06 02:43:43;;;;;;;1.47;1.30;;;7.20;99.90;;;;;;4959993;28;20241;-71
2024/03/06 02:46:09;;;;;;;2.53;1.67;;;7.30;99.90;;;;;;4963325;28;20513;-72
2024/03/06 02:48:34;;;;;;;2.50;2.27;;;7.40;99.90;;;;;;4957444;28;20258;-72
2024/03/06 02:51:00;;;;;;;1.97;1.77;;;7.50;99.90;;;;;;4964647;28;20222;-70
2024/03/06 02:53:27;;;;;;;3.10;2.27;;;7.50;99.90;;;;;;4959908;28;20223;-73
2024/03/06 02:55:53;;;;;;;2.20;1.57;;;7.50;99.90;;;;;;4974413;28;20600;-73
2024/03/06 02:58:19;;;;;;;2.30;2.10;;;7.50;99.90;;;;;;4959506;28;20471;-73
2024/03/06 03:00:44;;;;;;;2.43;2.13;;;7.50;99.90;;;;;;4960231;28;20215;-73
2024/03/06 03:03:14;;;;;;;2.23;2.03;;;7.50;99.90;;;;;;4962080;28;20361;-73
2024/03/06 03:05:40;;;;;;;2.70;2.20;;;7.50;99.90;;;;;;4969813;28;20234;-71
2024/03/06 03:08:09;;;;;;;3.17;1.83;;;7.50;99.90;;;;;;4947049;28;20457;-73
2024/03/06 03:10:34;;;;;;;2.70;2.03;;;7.60;99.90;;;;;;4960167;28;20278;-73
2024/03/06 03:13:01;;;;;;;2.80;2.00;;;7.50;99.90;;;;;;4966396;28;20462;-74
2024/03/06 03:15:27;;;;;;;6.30;2.30;;;7.50;99.90;;;;;;4948946;28;20287;-72
2024/03/06 03:17:52;;;;;;;2.20;1.80;;;7.50;99.90;;;;;;4945736;28;20478;-73
2024/03/06 03:20:18;;;;;;;2.17;1.93;;;7.40;99.90;;;;;;4962604;28;20775;-73
2024/03/06 03:22:44;;;;;;;2.50;1.70;;;7.40;99.90;;;;;;4954174;28;20583;-72
2024/03/06 03:25:14;;;;;;;1.77;1.67;;;7.50;99.90;;;;;;4961845;28;20317;-74
2024/03/06 03:27:41;;;;;;;2.23;2.03;;;7.50;99.90;;;;;;4958550;28;20214;-74
2024/03/06 03:30:10;;;;;;;1.90;1.80;;;7.50;99.90;;;;;;4946441;28;20458;-74
2024/03/06 03:32:37;;;;;;;3.37;1.93;;;7.50;99.90;;;;;;4958263;28;20505;-74
2024/03/06 03:35:05;;;;;;;1.47;1.37;;;7.50;99.90;;;;;;4961411;28;20486;-73
2024/03/06 03:37:31;;;;;;;1.70;1.47;;;7.50;99.90;;;;;;4961220;28;20470;-73
2024/03/06 03:39:56;;;;;;;2.80;1.77;;;7.50;99.90;;;;;;4959612;28;20465;-74
2024/03/06 03:42:22;;;;;;;1.37;1.27;;;7.40;99.90;;;;;;4962973;28;20756;-73
2024/03/06 03:44:48;;;;;;;2.20;1.90;;;7.40;99.90;;;;;;4958441;28;20222;-74
2024/03/06 03:47:13;;;;;;;2.00;1.90;;;7.40;99.90;;;;;;4960746;28;20219;-73
2024/03/06 03:49:39;;;;;;;2.20;1.53;;;7.40;99.90;;;;;;4956310;28;20214;-73
2024/03/06 03:52:05;;;;;;;2.50;1.60;;;7.40;99.90;;;;;;4969730;28;20719;-73
2024/03/06 03:54:30;;;;;;;1.60;1.50;;;7.40;99.90;;;;;;4959658;28;20241;-74
2024/03/06 03:56:59;;;;;;;3.20;2.07;;;7.30;99.90;;;;;;4954480;28;20600;-73
2024/03/06 03:59:24;;;;;;;2.77;2.13;;;7.30;99.90;;;;;;4961176;28;20281;-74
2024/03/06 04:01:50;;;;;;;3.33;2.10;;;7.30;99.90;;;;;;4958123;28;20999;-72
2024/03/06 04:04:16;;;;;;;1.80;1.50;;;7.20;99.90;;;;;;4964572;28;20553;-74
2024/03/06 04:06:41;;;;;;;3.70;2.67;;;7.10;99.90;;;;;;4957648;28;20242;-74
2024/03/06 04:09:09;;;;;;;2.80;1.93;;;7.00;99.90;;;;;;4959670;28;20217;-71
2024/03/06 04:11:37;;;;;;;2.30;2.10;;;7.00;99.90;;;;;;4940235;28;20222;-73
2024/03/06 04:14:03;;;;;;;1.97;1.50;;;6.70;99.90;;;;;;4960385;28;20469;-73
2024/03/06 04:16:29;;;;;;;3.47;2.40;;;6.30;99.90;;;;;;4959814;28;20900;-73
2024/03/06 04:18:55;;;;;;;2.87;2.27;;;6.20;99.90;;;;;;4955674;28;20451;-74
2024/03/06 04:21:22;;;;;;;2.50;2.27;;;6.20;99.90;;;;;;4963228;28;20267;-73
2024/03/06 04:23:48;;;;;;;1.73;1.60;;;6.30;99.90;;;;;;4955599;28;20234;-73
2024/03/06 04:26:14;;;;;;;3.90;1.97;;;6.60;99.90;;;;;;4962352;28;20505;-73
2024/03/06 04:28:39;;;;;;;2.17;1.97;;;6.80;99.90;;;;;;4942808;28;20227;-73
2024/03/06 04:31:05;;;;;;;3.80;1.77;;;6.90;99.90;;;;;;4947020;28;20223;-74
2024/03/06 04:33:31;;;;;;;2.80;1.87;;;7.00;99.90;;;;;;4959493;28;20718;-73
2024/03/06 04:35:57;;;;;;;2.50;1.50;;;7.10;99.90;;;;;;4970221;28;20470;-73
2024/03/06 04:38:22;;;;;;;2.17;1.93;;;7.10;99.90;;;;;;4960903;28;20233;-73
2024/03/06 04:40:48;;;;;;;2.20;2.00;;;7.10;99.90;;;;;;4962907;28;20309;-73
2024/03/06 04:43:14;;;;;;;2.20;1.80;;;7.10;99.90;;;;;;4964335;28;20253;-74
2024/03/06 04:45:39;;;;;;;4.93;2.20;;;7.10;99.90;;;;;;4958875;28;20229;-73
2024/03/06 04:48:06;;;;;;;2.43;1.50;;;7.00;99.90;;;;;;4960084;28;20310;-73
2024/03/06 04:50:32;;;;;;;2.73;1.80;;;6.80;99.90;;;;;;4962377;28;20227;-73
2024/03/06 04:52:58;;;;;;;2.60;1.90;;;6.60;99.90;;;;;;4971545;28;21042;-72
2024/03/06 04:55:25;;;;;;;1.30;1.20;;;6.30;99.90;;;;;;4960025;28;20490;-73
2024/03/06 04:57:53;;;;;;;2.80;2.13;;;6.00;99.90;;;;;;4960140;28;20226;-72
2024/03/06 05:00:19;;;;;;;1.90;1.70;;;5.90;99.90;;;;;;4962793;28;20561;-73
2024/03/06 05:02:45;;;;;;;2.03;1.40;;;5.90;99.90;;;;;;4953855;28;20520;-71
2024/03/06 05:05:11;;;;;;;2.37;2.17;;;6.20;99.90;;;;;;4958127;28;20492;-73
2024/03/06 05:07:37;;;;;;;3.53;1.80;;;6.50;99.90;;;;;;4955637;28;20465;-72
2024/03/06 05:10:03;;;;;;;2.20;2.00;;;6.60;99.90;;;;;;4960611;28;20226;-72
2024/03/06 05:12:28;;;;;;;2.77;2.10;;;6.70;99.90;;;;;;4955954;28;20223;-71
2024/03/06 05:14:55;;;;;;;1.67;1.57;;;6.80;99.90;;;;;;4953013;28;21433;-73
2024/03/06 05:17:21;;;;;;;3.10;2.10;;;6.80;99.90;;;;;;4959474;28;20277;-72
2024/03/06 05:19:49;;;;;;;2.03;1.93;;;6.80;99.90;;;;;;4958427;28;20459;-73
2024/03/06 05:22:15;;;;;;;2.43;2.00;;;6.80;99.90;;;;;;4960270;28;20473;-72
2024/03/06 05:24:42;;;;;;;5.03;2.57;;;6.70;99.90;;;;;;4956528;28;20491;-72
2024/03/06 05:27:09;;;;;;;2.90;2.23;;;6.30;99.90;;;;;;4961284;28;20562;-72
2024/03/06 05:29:36;;;;;;;2.13;2.00;;;6.10;99.90;;;;;;4957151;28;20451;-71
2024/03/06 05:32:03;;;;;;;2.73;1.77;;;6.30;99.90;;;;;;4974419;28;20482;-72
2024/03/06 05:34:29;;;;;;;2.10;1.90;;;6.40;99.90;;;;;;4960547;28;20464;-73
2024/03/06 05:36:55;;;;;;;4.30;1.77;;;6.60;99.90;;;;;;4956712;28;21956;-73
2024/03/06 05:39:21;;;;;;;2.27;2.07;;;6.60;99.90;;;;;;4961469;28;21036;-72
2024/03/06 05:41:46;;;;;;;2.00;1.50;;;6.70;99.90;;;;;;4940408;28;20265;-72
2024/03/06 05:44:12;;;;;;;3.70;2.20;;;6.60;99.90;;;;;;4963059;28;20230;-73
2024/03/06 05:46:38;;;;;;;2.07;1.80;;;6.70;99.90;;;;;;4958247;28;20284;-72
2024/03/06 05:49:04;;;;;;;2.20;1.90;;;6.60;99.90;;;;;;4961290;28;20207;-73
2024/03/06 05:51:30;;;;;;;5.03;2.30;;;6.60;99.90;;;;;;4957575;28;20222;-73
2024/03/06 05:53:56;;;;;;;3.30;2.20;;;6.60;99.90;;;;;;4960200;28;20449;-73
2024/03/06 05:56:22;;;;;;;3.53;2.03;;;6.70;99.90;;;;;;4973535;28;20258;-72
2024/03/06 05:58:49;;;;;;;3.07;2.33;;;6.70;99.90;;;;;;4955116;28;20513;-73
2024/03/06 06:01:21;;;;;;;2.07;1.60;;;6.70;99.90;;;;;;4961767;28;20215;-73
2024/03/06 06:03:48;;;;;;;2.60;1.83;;;6.70;99.90;;;;;;4955016;28;20446;-73
2024/03/06 06:06:19;;;;;;;2.23;1.70;;;6.70;99.90;;;;;;4955898;28;20478;-73
2024/03/06 06:08:44;;;;;;;1.90;1.80;;;6.70;99.90;;;;;;4966909;28;20589;-73
2024/03/06 06:11:11;;;;;;;2.13;1.93;;;6.70;99.90;;;;;;4962661;28;20561;-73
2024/03/06 06:13:37;;;;;;;5.53;2.10;;;6.70;99.90;;;;;;4949217;28;20301;-73
2024/03/06 06:16:02;;;;;;;2.60;2.23;;;6.60;99.90;;;;;;4959542;28;20563;-72
2024/03/06 06:18:28;;;;;;;3.37;2.13;;;6.40;99.90;;;;;;4960554;28;20247;-72
2024/03/06 06:20:54;;;;;;;1.87;1.67;;;6.40;99.90;;;;;;4959884;28;20218;-73
2024/03/06 06:23:20;;;;;;;2.30;2.00;;;6.50;99.90;;;;;;4963310;28;20231;-71
2024/03/06 06:25:45;;;;;;;3.63;1.73;;;6.50;99.90;;;;;;4958378;28;20236;-73
2024/03/06 06:28:11;;;;;;;3.80;1.83;;;6.50;99.90;;;;;;4947173;28;20230;-72
2024/03/06 06:30:38;;;;;;;2.70;1.60;;;6.60;99.90;;;;;;4957507;28;20229;-73
2024/03/06 06:33:04;;;;;;;4.80;2.00;;;6.60;99.90;;;;;;4960836;28;20290;-73
2024/03/06 06:35:30;;;;;;;2.17;1.77;;;6.70;99.90;;;;;;4961437;28;20470;-73
2024/03/06 06:37:55;;;;;;;5.53;3.10;;;6.60;99.90;;;;;;4959618;28;20469;-73
2024/03/06 06:40:21;;;;;;;2.27;2.13;;;6.60;99.90;;;;;;4963132;28;20219;-71
2024/03/06 06:42:51;;;;;;;2.60;2.40;;;6.60;99.90;;;;;;4955360;28;20223;-72
2024/03/06 06:45:18;;;;;;;2.03;1.80;;;6.60;99.90;;;;;;4945943;28;20254;-72
2024/03/06 06:47:45;;;;;;;2.50;1.87;;;6.60;99.90;;;;;;4962460;28;20505;-72
2024/03/06 06:50:11;;;;;;;2.50;2.30;;;6.60;99.90;;;;;;4962389;28;20895;-73
2024/03/06 06:52:38;;;;;;;2.23;2.03;;;6.60;99.90;;;;;;4957683;28;20489;-73
2024/03/06 06:55:05;;;;;;;2.10;1.90;;;6.70;99.90;;;;;;4947951;28;20850;-74
2024/03/06 06:57:32;;;;;;;2.83;2.33;;;6.70;99.90;;;;;;4961266;28;20580;-73
2024/03/06 06:59:59;;;;;;;3.17;1.90;;;6.60;99.90;;;;;;4959130;28;20612;-73
2024/03/06 07:02:24;;;;;;;2.00;1.80;;;6.60;99.90;;;;;;4963027;28;20500;-73
2024/03/06 07:04:50;;;;;;;1.73;1.63;;;6.70;99.90;;;;;;4957252;28;20540;-73
2024/03/06 07:07:16;;;;;;;5.03;2.00;;;6.70;99.90;;;;;;4963256;28;20210;-73
2024/03/06 07:09:43;;;;;;;3.13;2.10;;;6.70;99.90;;;;;;4958081;28;20217;-74
2024/03/06 07:12:09;;;;;;;2.20;2.00;;;6.70;99.90;;;;;;4960985;28;20466;-74
2024/03/06 07:14:34;;;;;;;4.60;2.30;;;6.70;99.90;;;;;;4966462;28;20478;-73
2024/03/06 07:17:00;;;;;;;2.50;1.77;;;6.70;99.90;;;;;;4973071;28;20220;-73
2024/03/06 07:19:26;;;;;;;1.77;1.57;;;6.70;99.90;;;;;;4959598;28;20231;-74
2024/03/06 07:21:53;;;;;;;4.30;2.37;;;6.70;99.90;;;;;;4957278;28;20505;-74
2024/03/06 07:24:19;;;;;;;2.40;1.50;;;6.70;99.90;;;;;;4959270;28;20349;-73
2024/03/06 07:26:45;;;;;;;2.03;1.90;;;6.70;99.90;;;;;;4955954;28;20494;-74
2024/03/06 07:29:14;;;;;;;1.83;1.60;;;6.40;99.90;;;;;;4975733;28;21148;-72
2024/03/06 07:31:47;;;;;;;3.77;1.73;;;6.10;99.90;;;;;;4957280;28;20223;-73
2024/03/06 07:34:14;;;;;;;2.40;2.03;;;6.30;99.90;;;;;;4961073;28;20461;-74
2024/03/06 07:36:40;;;;;;;3.07;2.17;;;6.40;99.90;;;;;;4956063;28;20512;-73
2024/03/06 07:39:07;;;;;;;5.13;2.00;;;6.50;99.90;;;;;;4959864;28;20462;-73
2024/03/06 07:41:33;;;;;;;3.27;2.13;;;6.40;99.90;;;;;;4961622;28;20466;-73
2024/03/06 07:44:02;;;;;;;2.33;1.67;;;6.50;99.90;;;;;;4961847;28;20504;-73
2024/03/06 07:46:28;;;;;;;3.10;1.73;;;6.60;99.90;;;;;;4961043;28;20257;-74
2024/03/06 07:48:54;;;;;;;2.40;2.20;;;6.60;99.90;;;;;;4960459;28;20470;-72
2024/03/06 07:51:20;;;;;;;2.37;1.93;;;6.70;99.90;;;;;;4958514;28;20587;-73
2024/03/06 07:53:46;;;;;;;1.80;1.70;;;6.80;99.90;;;;;;4956864;28;20470;-73
2024/03/06 07:56:12;;;;;;;4.23;2.00;;;6.90;99.90;;;;;;4961512;28;20256;-73
2024/03/06 07:58:38;;;;;;;2.23;1.90;;;7.00;99.90;;;;;;4942948;28;20230;-73
2024/03/06 08:01:04;;;;;;;2.43;1.97;;;7.10;99.90;;;;;;4954089;28;20845;-73
2024/03/06 08:03:30;;;;;;;1.97;1.67;;;7.10;99.90;;;;;;4941706;28;20215;-72
2024/03/06 08:05:56;;;;;;;2.37;1.80;;;7.10;99.90;;;;;;4937358;28;21049;-73
2024/03/06 08:08:22;;;;;;;2.43;2.23;;;7.20;99.90;;;;;;4959319;28;20238;-73
2024/03/06 08:10:47;;;;;;;5.00;1.90;;;7.20;99.90;;;;;;4950807;28;20228;-72
2024/03/06 08:13:14;;;;;;;2.13;1.80;;;7.30;99.90;;;;;;4957406;28;20533;-74
2024/03/06 08:15:40;;;;;;;1.70;1.33;;;7.40;99.90;;;;;;4952080;28;20609;-74
2024/03/06 08:18:06;;;;;;;2.40;1.63;;;7.50;99.90;;;;;;4942926;28;20473;-71
2024/03/06 08:20:32;;;;;;;2.17;1.70;;;7.60;99.90;;;;;;4972861;28;20478;-74
2024/03/06 08:22:58;;;;;;;3.07;1.83;;;7.60;99.90;;;;;;4956250;28;20466;-73
2024/03/06 08:25:24;;;;;;;2.40;1.70;;;7.60;99.90;;;;;;4945517;28;20353;-73
2024/03/06 08:27:50;;;;;;;2.13;1.60;;;7.70;99.90;;;;;;4954339;28;21246;-74
2024/03/06 08:30:15;;;;;;;1.63;1.37;;;7.80;99.90;;;;;;4960703;28;20227;-72
2024/03/06 08:32:43;;;;;;;1.67;1.57;;;7.90;99.90;;;;;;4956233;28;20238;-74
2024/03/06 08:35:11;;;;;;;2.07;1.53;;;8.00;99.90;;;;;;4971389;28;20274;-70
2024/03/06 08:37:38;;;;;;;3.33;1.80;;;8.10;99.90;;;;;;4959493;28;20472;-74
2024/03/06 08:40:04;;;;;;;3.60;1.77;;;8.10;99.90;;;;;;4952685;28;21021;-72
2024/03/06 08:42:29;;;;;;;2.57;1.73;;;8.30;99.90;;;;;;4943843;28;20888;-72
2024/03/06 08:44:56;;;;;;;3.80;2.10;;;8.30;99.90;;;;;;4952755;28;20482;-73
2024/03/06 08:47:22;;;;;;;1.50;1.40;;;8.30;99.90;;;;;;4955251;28;20223;-74
2024/03/06 08:49:48;;;;;;;3.37;2.30;;;8.30;99.90;;;;;;4952848;28;20470;-73
2024/03/06 08:52:14;;;;;;;5.37;2.20;;;8.20;99.90;;;;;;4971465;28;20218;-74
2024/03/06 08:54:42;;;;;;;3.40;1.80;;;8.30;99.90;;;;;;4955259;28;20214;-73
2024/03/06 08:57:10;;;;;;;4.90;2.60;;;8.30;99.90;;;;;;4944052;28;20462;-74
2024/03/06 08:59:36;;;;;;;3.10;2.07;;;8.40;99.90;;;;;;4957704;28;20468;-72
2024/03/06 09:02:15;;;;;;;3.33;2.60;;;8.40;99.90;;;;;;4953693;28;20453;-73
2024/03/06 09:04:44;;;;;;;6.10;2.40;;;8.40;99.90;;;;;;4956799;28;20238;-74
2024/03/06 09:07:10;;;;;;;1.87;1.60;;;8.60;99.90;;;;;;4958447;28;21032;-74
2024/03/06 09:09:37;;;;;;;2.50;2.07;;;8.70;99.90;;;;;;4956680;28;20977;-73
2024/03/06 09:12:05;;;;;;;3.83;2.10;;;8.70;99.90;;;;;;4939083;28;20467;-74
2024/03/06 09:14:34;;;;;;;4.00;2.50;;;8.70;99.90;;;;;;4956799;28;20481;-73
2024/03/06 09:17:00;;;;;;;2.13;1.83;;;8.80;99.90;;;;;;4939956;28;20462;-73
2024/03/06 09:19:26;;;;;;;5.83;2.33;;;8.80;99.90;;;;;;4954202;28;20989;-74
2024/03/06 09:21:51;;;;;;;3.33;2.30;;;8.80;99.90;;;;;;4951676;28;20476;-74
2024/03/06 09:24:17;;;;;;;2.53;1.83;;;8.80;99.90;;;;;;4960061;28;20215;-74
2024/03/06 09:26:47;;;;;;;3.80;1.93;;;8.90;99.90;;;;;;4954526;28;20230;-74
2024/03/06 09:29:12;;;;;;;3.30;2.07;;;8.90;99.90;;;;;;4962951;28;20313;-74
2024/03/06 09:31:38;;;;;;;2.77;2.20;;;8.90;99.90;;;;;;4957324;28;20592;-73
2024/03/06 09:34:04;;;;;;;5.00;2.50;;;8.90;99.90;;;;;;4953286;28;20234;-74
2024/03/06 09:36:29;;;;;;;3.47;2.20;;;8.90;99.90;;;;;;4942195;28;20317;-71
2024/03/06 09:38:55;;;;;;;2.77;2.37;;;8.90;99.90;;;;;;4959495;28;20324;-73
2024/03/06 09:41:22;;;;;;;2.70;2.47;;;9.00;99.90;;;;;;4963589;28;20712;-74
2024/03/06 09:43:48;;;;;;;3.37;2.83;;;9.00;99.90;;;;;;4963770;28;20475;-74
2024/03/06 09:46:14;;;;;;;2.60;2.33;;;9.00;99.90;;;;;;4968566;28;20470;-73
2024/03/06 09:48:47;;;;;;;3.00;2.43;;;9.10;99.90;;;;;;4966271;28;20544;-74
2024/03/06 09:51:13;;;;;;;3.57;2.40;;;9.10;99.90;;;;;;4966607;28;20466;-74
2024/03/06 09:53:40;;;;;;;3.83;2.93;;;9.10;99.90;;;;;;4966599;28;20471;-74
2024/03/06 09:56:06;;;;;;;2.40;2.20;;;9.20;99.90;;;;;;4963976;28;21026;-73
2024/03/06 09:58:32;;;;;;;4.47;2.70;;;9.20;99.90;;;;;;4982029;28;21098;-73
2024/03/06 10:01:00;;;;;;;4.37;2.73;;;9.30;99.90;;;;;;4966480;28;20501;-73
2024/03/06 10:03:26;;;;;;;4.70;2.87;;;9.40;99.90;;;;;;4962644;28;20712;-72
2024/03/06 10:05:52;;;;;;;5.07;3.40;;;9.50;99.90;;;;;;4968478;28;20494;-74
2024/03/06 10:08:21;;;;;;;5.37;3.47;;;9.60;99.90;;;;;;4965317;28;20516;-74
2024/03/06 10:10:50;;;;;;;5.63;3.80;;;9.50;99.90;;;;;;4966210;28;20221;-74
2024/03/06 10:13:17;;;;;;;4.23;3.43;;;9.60;99.90;;;;;;4966978;28;20481;-73
2024/03/06 10:15:56;;;;;;;5.27;2.73;;;9.90;99.90;;;;;;4963352;28;20521;-73
2024/03/06 10:18:22;;;;;;;5.43;3.17;;;10.10;99.90;;;;;;4930792;28;20488;-72
2024/03/06 10:20:47;;;;;;;4.90;3.53;;;10.00;99.90;;;;;;4949012;28;20479;-74
2024/03/06 10:23:14;;;;;;;5.07;3.17;;;10.00;99.90;;;;;;4952836;28;20229;-73
2024/03/06 10:25:43;;;;;;;5.43;3.80;;;10.10;99.90;;;;;;4966134;28;20317;-74
2024/03/06 10:28:10;;;;;;;8.97;3.97;;;10.20;99.90;;;;;;4967008;28;20481;-74
2024/03/06 10:30:37;;;;;;;5.93;3.40;;;10.30;99.90;;;;;;4966483;28;20485;-73
2024/03/06 10:33:05;;;;;;;4.87;3.40;;;10.50;99.90;;;;;;4967704;28;20501;-74
2024/03/06 10:35:37;;;;;;;5.20;3.30;;;10.60;99.90;;;;;;4968548;28;20469;-74
2024/03/06 10:38:04;;;;;;;6.50;4.20;;;10.80;99.90;;;;;;4974156;28;21014;-75
2024/03/06 10:40:39;;;;;;;9.63;4.60;;;10.80;99.90;;;;;;4968578;28;20481;-72
2024/03/06 10:43:06;;;;;;;8.77;5.00;;;10.90;99.90;;;;;;4982387;28;20482;-72
2024/03/06 10:45:40;;;;;;;6.43;4.60;;;10.90;99.90;;;;;;4966277;28;20505;-74
2024/03/06 10:48:07;;;;;;;7.73;5.20;;;11.10;99.90;;;;;;4968139;28;20516;-73
2024/03/06 10:50:33;;;;;;;6.80;4.80;;;11.10;99.90;;;;;;4966626;28;20497;-73
2024/03/06 10:52:59;;;;;;;5.33;4.80;;;11.10;99.90;;;;;;4968642;28;20468;-73
2024/03/06 10:55:29;;;;;;;8.10;5.73;;;11.20;99.90;;;;;;4966406;28;20470;-74
2024/03/06 10:57:56;;;;;;;8.43;4.90;;;11.30;99.90;;;;;;4965978;28;20469;-74
2024/03/06 11:00:24;;;;;;;8.50;4.80;;;11.50;99.90;;;;;;4967915;28;21023;-73
2024/03/06 11:02:53;;;;;;;8.47;5.20;;;11.20;99.90;;;;;;4968769;28;20479;-73
2024/03/06 11:05:18;;;;;;;6.37;5.37;;;11.20;99.90;;;;;;4965477;28;20474;-74
2024/03/06 11:07:44;;;;;;;7.43;5.30;;;11.40;99.90;;;;;;4967563;28;20813;-73
2024/03/06 11:10:16;;;;;;;8.80;5.27;;;11.40;99.90;;;;;;4965597;28;20844;-74
2024/03/06 11:12:44;;;;;;;11.20;5.73;;;11.50;99.90;;;;;;4967803;28;20269;-74
2024/03/06 11:15:15;;;;;;;7.90;5.17;;;11.70;99.90;;;;;;4947780;28;20445;-72
2024/03/06 11:17:40;;;;;;;6.70;4.60;;;11.70;99.90;;;;;;4964194;28;20517;-74
2024/03/06 11:20:16;;;;;;;7.90;5.10;;;11.60;99.90;;;;;;4965569;28;20466;-74
2024/03/06 11:22:57;;;;;;;6.40;4.57;;;11.60;99.90;;;;;;4965319;28;20237;-74
2024/03/06 11:25:53;;;;;;;8.63;4.77;;;11.80;99.90;;;;;;4967130;28;20481;-74
2024/03/06 11:28:29;;;;;;;8.73;5.20;;;12.10;99.90;;;;;;4961828;28;20473;-73
2024/03/06 11:30:56;;;;;;;7.50;4.73;;;11.90;99.90;;;;;;4967354;28;20536;-74
2024/03/06 11:33:23;;;;;;;8.53;5.90;;;11.90;99.90;;;;;;4967982;28;20530;-74
2024/03/06 11:36:13;;;;;;;8.77;5.27;;;12.00;99.90;;;;;;4964775;28;20543;-74
2024/03/06 11:38:39;;;;;;;9.23;5.07;;;11.90;99.90;;;;;;4963325;28;20533;-73
2024/03/06 11:41:09;;;;;;;8.97;6.50;;;12.10;99.90;;;;;;4964120;28;20470;-74
2024/03/06 11:43:42;;;;;;;8.40;4.83;;;12.00;99.90;;;;;;4967023;28;20496;-75
2024/03/06 11:46:11;;;;;;;6.00;4.43;;;12.10;99.90;;;;;;4966731;28;20474;-75
2024/03/06 11:48:37;;;;;;;6.27;4.03;;;12.00;99.90;;;;;;4966915;28;20480;-74
2024/03/06 11:51:04;;;;;;;9.80;5.13;;;12.30;99.90;;;;;;4966536;28;20466;-75
2024/03/06 11:53:30;;;;;;;8.47;5.37;;;12.30;99.90;;;;;;4966483;28;20577;-74
2024/03/06 11:55:56;;;;;;;8.60;4.73;;;12.40;99.90;;;;;;4967419;28;20549;-74
2024/03/06 11:58:22;;;;;;;8.10;5.00;;;12.50;99.90;;;;;;4967367;28;20556;-75
2024/03/06 12:00:48;;;;;;;8.60;4.70;;;12.40;99.90;;;;;;4966689;28;20233;-73
2024/03/06 12:03:14;;;;;;;7.23;5.03;;;12.40;99.90;;;;;;4964356;28;20462;-74
2024/03/06 12:05:40;;;;;;;9.40;5.43;;;12.10;99.90;;;;;;4969592;28;20226;-73
2024/03/06 12:08:07;;;;;;;5.53;4.23;;;12.00;99.90;;;;;;4979602;28;20214;-73
2024/03/06 12:10:37;;;;;;;6.63;4.53;;;12.00;99.90;;;;;;4967233;28;20230;-74
2024/03/06 12:13:03;;;;;;;8.30;4.63;;;12.10;99.90;;;;;;4966173;28;20516;-73
2024/03/06 12:15:29;;;;;;;5.87;4.23;;;12.20;99.90;;;;;;4964026;28;20509;-73
2024/03/06 12:17:55;;;;;;;7.23;4.47;;;12.30;99.90;;;;;;4962254;28;20494;-73
2024/03/06 12:20:20;;;;;;;6.33;4.67;;;12.50;99.90;;;;;;4962114;28;20311;-74
2024/03/06 12:22:56;;;;;;;7.23;4.40;;;12.40;99.90;;;;;;4979598;28;20234;-73
2024/03/06 12:25:23;;;;;;;5.77;4.00;;;12.20;99.90;;;;;;4960314;28;20708;-74
2024/03/06 12:27:50;;;;;;;7.27;4.83;;;12.20;99.90;;;;;;4963913;28;20466;-73
2024/03/06 12:30:23;;;;;;;7.23;5.33;;;12.30;99.90;;;;;;4963954;28;20462;-75
2024/03/06 12:33:04;;;;;;;8.50;5.50;;;12.30;99.90;;;;;;4961693;28;20554;-74
2024/03/06 12:35:30;;;;;;;9.03;5.47;;;12.30;99.90;;;;;;4979455;28;20477;-74
2024/03/06 12:37:56;;;;;;;8.87;5.03;;;12.30;99.90;;;;;;4965401;28;20494;-75
2024/03/06 12:40:22;;;;;;;8.53;5.50;;;12.40;99.90;;;;;;4964342;28;20498;-73
2024/03/06 12:42:49;;;;;;;6.70;5.30;;;12.40;99.90;;;;;;4962027;28;20223;-75
2024/03/06 12:45:15;;;;;;;9.37;5.70;;;12.30;99.90;;;;;;4969783;28;20571;-73
2024/03/06 12:47:42;;;;;;;9.47;5.50;;;12.30;99.90;;;;;;4966299;28;20896;-75
2024/03/06 12:50:08;;;;;;;9.00;6.07;;;12.30;99.90;;;;;;4962426;28;20489;-74
2024/03/06 12:52:34;;;;;;;8.33;5.60;;;12.30;99.90;;;;;;4964879;28;20462;-74